Observation data for Turkey on 06/24/2019      Previous  Date  Next       Current Mesonet Observations  Soil Data  Daily Summary Page  Observations in Plain Language
KTUR 240500Z 05004KT 23/14 A299 RMK A01 T02260141  RH  060%=      5-min Rain = 0
KTUR 240505Z 05004KT 23/14 A299 RMK A01 T02250141  RH  060%=      5-min Rain = 0
KTUR 240510Z 02003KT 22/14 A299 RMK A01 T02230142  RH  061%=      5-min Rain = 0
KTUR 240515Z 34004KT 22/14 A299 RMK A01 T02160141  RH  064%=      5-min Rain = 0
KTUR 240520Z 01004KT 21/14 A299 RMK A01 T02120140  RH  065%=      5-min Rain = 0
KTUR 240525Z 01004KT 21/14 A2991 RMK A01 T02140140  RH  064%=      5-min Rain = 0
KTUR 240530Z 01004KT 21/14 A2991 RMK A01 T02120141  RH  065%=      5-min Rain = 0
KTUR 240535Z 00004KT 21/14 A2991 RMK A01 T02080141  RH  067%=      5-min Rain = 0
KTUR 240540Z 01004KT 21/14 A2991 RMK A01 T02080141  RH  067%=      5-min Rain = 0
KTUR 240545Z 00004KT 21/14 A2991 RMK A01 T02090142  RH  067%=      5-min Rain = 0
KTUR 240550Z 00004KT 21/14 A2991 RMK A01 T02090142  RH  067%=      5-min Rain = 0
KTUR 240555Z 00004KT 21/14 A2992 RMK A01 T02090142  RH  067%=      5-min Rain = 0
KTUR 240600Z 00004KT 21/14 A2992 RMK A01 T02070143  RH  068%=      5-min Rain = 0
KTUR 240605Z 02004KT 21/14 A2992 RMK A01 T02050143  RH  069%=      5-min Rain = 0
KTUR 240610Z 02006KT 21/14 A2992 RMK A01 T02070144  RH  069%=      5-min Rain = 0
KTUR 240615Z 01005KT 21/15 A2992 RMK A01 T02070145  RH  069%=      5-min Rain = 0
KTUR 240620Z 35005KT 20/15 A2992 RMK A01 T02030145  RH  071%=      5-min Rain = 0
KTUR 240625Z 35005KT 20/15 A2993 RMK A01 T02010145  RH  071%=      5-min Rain = 0
KTUR 240630Z 00005KT 20/15 A2993 RMK A01 T02010145  RH  072%=      5-min Rain = 0
KTUR 240635Z 01006KT 20/15 A2993 RMK A01 T02010145  RH  072%=      5-min Rain = 0
KTUR 240640Z 01006KT 20/15 A2993 RMK A01 T02040145  RH  070%=      5-min Rain = 0
KTUR 240645Z 00007KT 20/14 A2993 RMK A01 T02040144  RH  070%=      5-min Rain = 0
KTUR 240650Z 00008KT 21/14 A2994 RMK A01 T02050144  RH  070%=      5-min Rain = 0
KTUR 240655Z 36008KT 20/15 A2994 RMK A01 T02030145  RH  071%=      5-min Rain = 0
KTUR 240700Z 35009KT 20/15 A2994 RMK A01 T02020146  RH  072%=      5-min Rain = 0
KTUR 240705Z 35009KT 20/15 A2994 RMK A01 T02010146  RH  072%=      5-min Rain = 0
KTUR 240710Z 00009KT 20/15 A2994 RMK A01 T02000147  RH  073%=      5-min Rain = 0
KTUR 240715Z 01009KT 20/15 A2994 RMK A01 T02000147  RH  073%=      5-min Rain = 0
KTUR 240720Z 01009KT 20/15 A2994 RMK A01 T01980147  RH  074%=      5-min Rain = 0
KTUR 240725Z 00008KT 20/15 A2994 RMK A01 T01970147  RH  075%=      5-min Rain = 0
KTUR 240730Z 01009KT 20/15 A2994 RMK A01 T01960148  RH  075%=      5-min Rain = 0
KTUR 240735Z 00008KT 20/15 A2994 RMK A01 T01960148  RH  075%=      5-min Rain = 0
KTUR 240740Z 00007KT 20/15 A2994 RMK A01 T01950147  RH  076%=      5-min Rain = 0
KTUR 240745Z 36007KT 19/15 A2995 RMK A01 T01930147  RH  076%=      5-min Rain = 0
KTUR 240750Z 00007KT 19/15 A2995 RMK A01 T01910147  RH  077%=      5-min Rain = 0
KTUR 240755Z 35007KT 19/15 A2995 RMK A01 T01900147  RH  078%=      5-min Rain = 0
KTUR 240800Z 35006KT 19/15 A2995 RMK A01 T01900147  RH  078%=      5-min Rain = 0
KTUR 240805Z 35005KT 19/15 A2995 RMK A01 T01890147  RH  078%=      5-min Rain = 0
KTUR 240810Z 35005KT 19/15 A2994 RMK A01 T01880146  RH  078%=      5-min Rain = 0
KTUR 240815Z 35005KT 19/15 A2994 RMK A01 T01850145  RH  079%=      5-min Rain = 0
KTUR 240820Z 35005KT 18/15 A2994 RMK A01 T01840147  RH  081%=      5-min Rain = 0
KTUR 240825Z 34005KT 19/15 A2995 RMK A01 T01860147  RH  080%=      5-min Rain = 0
KTUR 240830Z 34005KT 19/15 A2995 RMK A01 T01870147  RH  079%=      5-min Rain = 0
KTUR 240835Z 34004KT 18/15 A2994 RMK A01 T01840146  RH  080%=      5-min Rain = 0
KTUR 240840Z 35004KT 18/15 A2995 RMK A01 T01830146  RH  081%=      5-min Rain = 0
KTUR 240845Z 00004KT 18/15 A2995 RMK A01 T01830146  RH  081%=      5-min Rain = 0
KTUR 240850Z 01004KT 18/15 A2995 RMK A01 T01830147  RH  081%=      5-min Rain = 0
KTUR 240855Z 02004KT 18/15 A2995 RMK A01 T01840146  RH  080%=      5-min Rain = 0
KTUR 240900Z 03003KT 18/15 A2995 RMK A01 T01840146  RH  080%=      5-min Rain = 0
KTUR 240905Z 02003KT 18/15 A2995 RMK A01 T01830145  RH  080%=      5-min Rain = 0
KTUR 240910Z 01004KT 18/14 A2995 RMK A01 T01820144  RH  080%=      5-min Rain = 0
KTUR 240915Z 02004KT 18/14 A2996 RMK A01 T01800144  RH  081%=      5-min Rain = 0
KTUR 240920Z 02004KT 18/14 A2996 RMK A01 T01780143  RH  082%=      5-min Rain = 0
KTUR 240925Z 01003KT 18/14 A2996 RMK A01 T01770143  RH  082%=      5-min Rain = 0
KTUR 240930Z 34004KT 18/14 A2996 RMK A01 T01770142  RH  082%=      5-min Rain = 0
KTUR 240935Z 33004KT 17/14 A2996 RMK A01 T01740142  RH  083%=      5-min Rain = 0
KTUR 240940Z 33004KT 17/14 A2996 RMK A01 T01720142  RH  084%=      5-min Rain = 0
KTUR 240945Z 32005KT 17/14 A2996 RMK A01 T01700140  RH  084%=      5-min Rain = 0
KTUR 240950Z 31005KT 17/14 A2996 RMK A01 T01670139  RH  085%=      5-min Rain = 0
KTUR 240955Z 32005KT 17/14 A2996 RMK A01 T01660138  RH  085%=      5-min Rain = 0
KTUR 241000Z 33005KT 17/14 A2996 RMK A01 T01670139  RH  085%=      5-min Rain = 0
KTUR 241005Z 33005KT 17/14 A2997 RMK A01 T01680139  RH  085%=      5-min Rain = 0
KTUR 241010Z 33005KT 17/14 A2997 RMK A01 T01670138  RH  085%=      5-min Rain = 0
KTUR 241015Z 33006KT 17/14 A2997 RMK A01 T01680138  RH  084%=      5-min Rain = 0
KTUR 241020Z 32005KT 17/14 A2997 RMK A01 T01690138  RH  084%=      5-min Rain = 0
KTUR 241025Z 31005KT 17/14 A2997 RMK A01 T01670137  RH  084%=      5-min Rain = 0
KTUR 241030Z 31005KT 17/14 A2997 RMK A01 T01660137  RH  084%=      5-min Rain = 0
KTUR 241035Z 31006KT 17/14 A2997 RMK A01 T01660137  RH  085%=      5-min Rain = 0
KTUR 241040Z 31004KT 17/14 A2997 RMK A01 T01660136  RH  084%=      5-min Rain = 0
KTUR 241045Z 31003KT 17/14 A2997 RMK A01 T01660137  RH  084%=      5-min Rain = 0
KTUR 241050Z 31004KT 17/14 A2997 RMK A01 T01690138  RH  084%=      5-min Rain = 0
KTUR 241055Z 31004KT 17/14 A2997 RMK A01 T01690137  RH  083%=      5-min Rain = 0
KTUR 241100Z 31005KT 17/14 A2998 RMK A01 T01660135  RH  084%=      5-min Rain = 0
KTUR 241105Z 31006KT 17/13 A2998 RMK A01 T01650134  RH  084%=      5-min Rain = 0
KTUR 241110Z 31006KT 17/13 A2998 RMK A01 T01660134  RH  083%=      5-min Rain = 0
KTUR 241115Z 31006KT 17/13 A2998 RMK A01 T01670133  RH  082%=      5-min Rain = 0
KTUR 241120Z 32007KT 17/13 A2998 RMK A01 T01670131  RH  081%=      5-min Rain = 0
KTUR 241125Z 32007KT 17/13 A2998 RMK A01 T01670130  RH  080%=      5-min Rain = 0
KTUR 241130Z 31006KT 17/13 A2998 RMK A01 T01650130  RH  081%=      5-min Rain = 0
KTUR 241135Z 31006KT 17/13 A2998 RMK A01 T01650130  RH  081%=      5-min Rain = 0
KTUR 241140Z 30006KT 17/13 A2999 RMK A01 T01650129  RH  081%=      5-min Rain = 0
KTUR 241145Z 31006KT 17/13 A2999 RMK A01 T01650129  RH  081%=      5-min Rain = 0
KTUR 241150Z 31006KT 17/13 A2999 RMK A01 T01680129  RH  080%=      5-min Rain = 0
KTUR 241155Z 31006KT 17/13 A2999 RMK A01 T01690130  RH  080%=      5-min Rain = 0
KTUR 241200Z 31005KT 17/13 A2999 RMK A01 T01710131  RH  079%=      5-min Rain = 0
KTUR 241205Z 31006KT 17/13 A2999 RMK A01 T01720131  RH  078%=      5-min Rain = 0
KTUR 241210Z 31006KT 17/13 A2999 RMK A01 T01730131  RH  078%=      5-min Rain = 0
KTUR 241215Z 31005KT 18/13 A2999 RMK A01 T01750131  RH  077%=      5-min Rain = 0
KTUR 241220Z 31005KT 18/13 A2999 RMK A01 T01760131  RH  077%=      5-min Rain = 0
KTUR 241225Z 31004KT 18/13 A30 RMK A01 T01770131  RH  076%=      5-min Rain = 0
KTUR 241230Z 31004KT 18/13 A30 RMK A01 T01790130  RH  075%=      5-min Rain = 0
KTUR 241235Z 31004KT 18/13 A30 RMK A01 T01820130  RH  073%=      5-min Rain = 0
KTUR 241240Z 31004KT 19/13 A30 RMK A01 T01850130  RH  072%=      5-min Rain = 0
KTUR 241245Z 31004KT 19/13 A30 RMK A01 T01880127  RH  069%=      5-min Rain = 0
KTUR 241250Z 31005KT 19/13 A30 RMK A01 T01910127  RH  068%=      5-min Rain = 0
KTUR 241255Z 32005KT 19/13 A30 RMK A01 T01910125  RH  067%=      5-min Rain = 0
KTUR 241300Z 32004KT 19/13 A30 RMK A01 T01910130  RH  069%=      5-min Rain = 0
KTUR 241305Z 32005KT 19/13 A30 RMK A01 T01920130  RH  069%=      5-min Rain = 0
KTUR 241310Z 33005KT 19/13 A30 RMK A01 T01920132  RH  069%=      5-min Rain = 0
KTUR 241315Z 33004KT 19/13 A3001 RMK A01 T01920131  RH  069%=      5-min Rain = 0
KTUR 241320Z 32004KT 20/13 A3001 RMK A01 T01980133  RH  067%=      5-min Rain = 0
KTUR 241325Z 32003KT 20/13 A3001 RMK A01 T02010130  RH  065%=      5-min Rain = 0
KTUR 241330Z 36004KT 21/12 A3001 RMK A01 T02070122  RH  059%=      5-min Rain = 0
KTUR 241335Z 35006KT 21/12 A3001 RMK A01 T02110118  RH  056%=      5-min Rain = 0
KTUR 241340Z 35007KT 21/11 A3001 RMK A01 T02140108  RH  052%=      5-min Rain = 0
KTUR 241345Z 00007KT 22/10 A3001 RMK A01 T02160103  RH  049%=      5-min Rain = 0
KTUR 241350Z 00009KT 22/10 A3001 RMK A01 T02160102  RH  049%=      5-min Rain = 0
KTUR 241355Z 36007KT 22/10 A3001 RMK A01 T02190103  RH  049%=      5-min Rain = 0
KTUR 241400Z 36007KT 22/10 A3001 RMK A01 T02200103  RH  048%=      5-min Rain = 0
KTUR 241405Z 35008KT 22/10 A3001 RMK A01 T02210103  RH  048%=      5-min Rain = 0
KTUR 241410Z 36008KT 22/10 A3001 RMK A01 T02230100  RH  046%=      5-min Rain = 0
KTUR 241415Z 36008KT 22/10 A3001 RMK A01 T02230099  RH  046%=      5-min Rain = 0
KTUR 241420Z 35008KT 23/10 A3001 RMK A01 T02270102  RH  046%=      5-min Rain = 0
KTUR 241425Z 35008KT 23/10 A3001 RMK A01 T02280101  RH  045%=      5-min Rain = 0
KTUR 241430Z 02008KT 23/10 A3001 RMK A01 T02280099  RH  045%=      5-min Rain = 0
KTUR 241435Z 02007KT 23/10 A3002 RMK A01 T02290101  RH  045%=      5-min Rain = 0
KTUR 241440Z 02008KT 23/10 A3001 RMK A01 T02280097  RH  044%=      5-min Rain = 0
KTUR 241445Z 01007KT 23/10 A3001 RMK A01 T02290098  RH  044%=      5-min Rain = 0
KTUR 241450Z 02007KT 23/10 A3002 RMK A01 T02310096  RH  043%=      5-min Rain = 0
KTUR 241455Z 03006KT 23/10 A3002 RMK A01 T02320099  RH  044%=      5-min Rain = 0
KTUR 241500Z 03005KT 24/10 A3002 RMK A01 T02350102  RH  044%=      5-min Rain = 0
KTUR 241505Z 04006KT 24/10 A3002 RMK A01 T02380100  RH  042%=      5-min Rain = 0
KTUR 241510Z 03004KT 24/10 A3002 RMK A01 T02390102  RH  043%=      5-min Rain = 0
KTUR 241515Z 06006KT 24/10 A3002 RMK A01 T02390103  RH  043%=      5-min Rain = 0
KTUR 241520Z 02006KT 24/10 A3002 RMK A01 T02390103  RH  043%=      5-min Rain = 0
KTUR 241525Z 04005KT 24/11 A3001 RMK A01 T02410105  RH  043%=      5-min Rain = 0
KTUR 241530Z 04006KT 24/11 A3001 RMK A01 T02440105  RH  042%=      5-min Rain = 0
KTUR 241535Z 03006KT 24/10 A3001 RMK A01 T02440104  RH  042%=      5-min Rain = 0
KTUR 241540Z 03005KT 25/10 A3001 RMK A01 T02450102  RH  041%=      5-min Rain = 0
KTUR 241545Z 06005KT 24/10 A3001 RMK A01 T02440101  RH  041%=      5-min Rain = 0
KTUR 241550Z 07004KT 25/10 A3001 RMK A01 T02470104  RH  041%=      5-min Rain = 0
KTUR 241555Z 06006KT 25/10 A3001 RMK A01 T02500102  RH  040%=      5-min Rain = 0
KTUR 241600Z 06004KT 25/11 A3001 RMK A01 T02500105  RH  041%=      5-min Rain = 0
KTUR 241605Z 05005KT 26/11 A3001 RMK A01 T02580108  RH  040%=      5-min Rain = 0
KTUR 241610Z 04005G10KT 26/11 A3001 RMK A01 T02550107  RH  040%=      5-min Rain = 0
KTUR 241615Z 05007KT 26/11 A3001 RMK A01 T02580105  RH  039%=      5-min Rain = 0
KTUR 241620Z 04006KT 26/11 A3001 RMK A01 T02590108  RH  039%=      5-min Rain = 0
KTUR 241625Z 04006KT 26/10 A3001 RMK A01 T02610103  RH  038%=      5-min Rain = 0
KTUR 241630Z 05008KT 26/10 A3001 RMK A01 T02630101  RH  037%=      5-min Rain = 0
KTUR 241635Z 05006KT 26/10 A3001 RMK A01 T02620102  RH  037%=      5-min Rain = 0
KTUR 241640Z 08008KT 27/10 A3001 RMK A01 T02670102  RH  036%=      5-min Rain = 0
KTUR 241645Z 08008G13KT 27/10 A3001 RMK A01 T02690099  RH  035%=      5-min Rain = 0
KTUR 241650Z 04008KT 27/10 A30 RMK A01 T02670098  RH  035%=      5-min Rain = 0
KTUR 241655Z 06007KT 27/10 A30 RMK A01 T02710103  RH  036%=      5-min Rain = 0
KTUR 241700Z 09007G12KT 27/10 A30 RMK A01 T02720102  RH  035%=      5-min Rain = 0
KTUR 241705Z 08006KT 27/10 A30 RMK A01 T02700101  RH  035%=      5-min Rain = 0
KTUR 241710Z 06008G13KT 28/10 A30 RMK A01 T02750101  RH  034%=      5-min Rain = 0
KTUR 241715Z 06005G10KT 28/10 A30 RMK A01 T02750101  RH  034%=      5-min Rain = 0
KTUR 241720Z 10006G17KT 28/10 A2999 RMK A01 T02760104  RH  035%=      5-min Rain = 0
KTUR 241725Z 08010G17KT 28/11 A2999 RMK A01 T02800105  RH  034%=      5-min Rain = 0
KTUR 241730Z 07008KT 28/10 A2999 RMK A01 T02790102  RH  034%=      5-min Rain = 0
KTUR 241735Z 08006G11KT 28/10 A2999 RMK A01 T02790103  RH  034%=      5-min Rain = 0
KTUR 241740Z 07008G15KT 28/10 A2999 RMK A01 T02810104  RH  034%=      5-min Rain = 0
KTUR 241745Z 10007KT 28/10 A2999 RMK A01 T02820104  RH  034%=      5-min Rain = 0
KTUR 241750Z 09004G10KT 28/11 A2999 RMK A01 T02800107  RH  035%=      5-min Rain = 0
KTUR 241755Z 10008KT 28/11 A2998 RMK A01 T02830109  RH  034%=      5-min Rain = 0
KTUR 241805Z 11007KT 29/11 A2998 RMK A01 T02850110  RH  034%=      5-min Rain = 0
KTUR 241810Z 11007G13KT 29/11 A2998 RMK A01 T02860112  RH  035%=      5-min Rain = 0
KTUR 241815Z 08011KT 29/10 A2998 RMK A01 T02910103  RH  032%=      5-min Rain = 0
KTUR 241820Z 06008KT 29/11 A2998 RMK A01 T02910105  RH  032%=      5-min Rain = 0
KTUR 241825Z 08008G15KT 29/11 A2998 RMK A01 T02880105  RH  032%=      5-min Rain = 0
KTUR 241830Z 11009KT 29/10 A2997 RMK A01 T02890104  RH  032%=      5-min Rain = 0
KTUR 241835Z 12008G16KT 29/11 A2997 RMK A01 T02880111  RH  034%=      5-min Rain = 0
KTUR 241840Z 13012KT 29/10 A2997 RMK A01 T02940098  RH  030%=      5-min Rain = 0
KTUR 241845Z 13009G14KT 29/10 A2997 RMK A01 T02930096  RH  030%=      5-min Rain = 0
KTUR 241850Z 11012KT 30/10 A2997 RMK A01 T02950098  RH  030%=      5-min Rain = 0
KTUR 241855Z 11010G17KT 29/10 A2997 RMK A01 T02940102  RH  031%=      5-min Rain = 0
KTUR 241900Z 12010G16KT 30/10 A2996 RMK A01 T02960102  RH  031%=      5-min Rain = 0
KTUR 241905Z 11011G16KT 30/10 A2996 RMK A01 T02960102  RH  031%=      5-min Rain = 0
KTUR 241910Z 11010G15KT 30/10 A2996 RMK A01 T02960104  RH  031%=      5-min Rain = 0
KTUR 241915Z 11008G13KT 30/11 A2996 RMK A01 T02950110  RH  032%=      5-min Rain = 0
KTUR 241920Z 08012KT 30/11 A2996 RMK A01 T03000108  RH  031%=      5-min Rain = 0
KTUR 241925Z 09007G12KT 29/11 A2996 RMK A01 T02940106  RH  032%=      5-min Rain = 0
KTUR 241930Z 11012KT 30/11 A2996 RMK A01 T02980110  RH  032%=      5-min Rain = 0
KTUR 241935Z 14007KT 30/11 A2996 RMK A01 T02980112  RH  032%=      5-min Rain = 0
KTUR 241940Z 12005G12KT 30/11 A2996 RMK A01 T02970112  RH  032%=      5-min Rain = 0
KTUR 241945Z 11011KT 30/11 A2995 RMK A01 T03020114  RH  032%=      5-min Rain = 0
KTUR 241950Z 10007KT 30/11 A2995 RMK A01 T02980111  RH  032%=      5-min Rain = 0
KTUR 241955Z 10008G13KT 30/11 A2995 RMK A01 T03010114  RH  032%=      5-min Rain = 0
KTUR 242000Z 11011KT 30/11 A2995 RMK A01 T03020107  RH  030%=      5-min Rain = 0
KTUR 242005Z 12010G15KT 31/11 A2995 RMK A01 T03050108  RH  030%=      5-min Rain = 0
KTUR 242010Z 14006G13KT 30/11 A2995 RMK A01 T03040110  RH  031%=      5-min Rain = 0
KTUR 242015Z 10008KT 30/11 A2994 RMK A01 T03040114  RH  032%=      5-min Rain = 0
KTUR 242020Z 11011KT 30/11 A2994 RMK A01 T03030111  RH  031%=      5-min Rain = 0
KTUR 242025Z 12005G14KT 30/11 A2994 RMK A01 T03000110  RH  031%=      5-min Rain = 0
KTUR 242030Z 12010G15KT 30/11 A2994 RMK A01 T03040112  RH  031%=      5-min Rain = 0
KTUR 242035Z 12011KT 31/11 A2994 RMK A01 T03050107  RH  030%=      5-min Rain = 0
KTUR 242040Z 15007KT 30/11 A2994 RMK A01 T03040113  RH  031%=      5-min Rain = 0
KTUR 242045Z 13009G16KT 31/12 A2994 RMK A01 T03070119  RH  032%=      5-min Rain = 0
KTUR 242050Z 13010G16KT 31/12 A2993 RMK A01 T03070117  RH  032%=      5-min Rain = 0
KTUR 242055Z 12010G15KT 31/12 A2993 RMK A01 T03060117  RH  032%=      5-min Rain = 0
KTUR 242100Z 09008G16KT 31/12 A2993 RMK A01 T03080116  RH  031%=      5-min Rain = 0
KTUR 242105Z 10009G15KT 30/12 A2993 RMK A01 T03040115  RH  032%=      5-min Rain = 0
KTUR 242110Z 10008G14KT 31/12 A2993 RMK A01 T03050116  RH  032%=      5-min Rain = 0
KTUR 242115Z 13009KT 31/12 A2993 RMK A01 T03110123  RH  032%=      5-min Rain = 0
KTUR 242120Z 11011G16KT 31/12 A2992 RMK A01 T03100122  RH  032%=      5-min Rain = 0
KTUR 242125Z 10011G17KT 31/12 A2992 RMK A01 T03100122  RH  032%=      5-min Rain = 0
KTUR 242130Z 11007G13KT 31/12 A2992 RMK A01 T03050120  RH  033%=      5-min Rain = 0
KTUR 242135Z 11011G16KT 31/12 A2992 RMK A01 T03060120  RH  033%=      5-min Rain = 0
KTUR 242140Z 12012G20KT 31/12 A2992 RMK A01 T03070122  RH  033%=      5-min Rain = 0
KTUR 242145Z 12014G19KT 31/12 A2991 RMK A01 T03070123  RH  033%=      5-min Rain = 0
KTUR 242150Z 11009G14KT 31/12 A2991 RMK A01 T03070122  RH  033%=      5-min Rain = 0
KTUR 242155Z 11009G16KT 31/12 A2991 RMK A01 T03080124  RH  033%=      5-min Rain = 0
KTUR 242200Z 12011KT 31/12 A2991 RMK A01 T03090124  RH  033%=      5-min Rain = 0
KTUR 242205Z 14011G16KT 31/12 A2991 RMK A01 T03090123  RH  033%=      5-min Rain = 0
KTUR 242210Z 12011G17KT 31/12 A2991 RMK A01 T03090121  RH  032%=      5-min Rain = 0
KTUR 242215Z 12012KT 31/12 A2991 RMK A01 T03080124  RH  033%=      5-min Rain = 0
KTUR 242220Z 11012KT 31/12 A2991 RMK A01 T03080123  RH  033%=      5-min Rain = 0
KTUR 242225Z 12009G14KT 31/12 A2991 RMK A01 T03060122  RH  033%=      5-min Rain = 0
KTUR 242230Z 13008G13KT 31/12 A299 RMK A01 T03070124  RH  033%=      5-min Rain = 0
KTUR 242235Z 14010KT 31/12 A299 RMK A01 T03070123  RH  033%=      5-min Rain = 0
KTUR 242240Z 13010G19KT 31/13 A299 RMK A01 T03090125  RH  033%=      5-min Rain = 0
KTUR 242245Z 12012KT 31/13 A299 RMK A01 T03090129  RH  034%=      5-min Rain = 0
KTUR 242250Z 12011KT 31/13 A2989 RMK A01 T03070127  RH  034%=      5-min Rain = 0
KTUR 242255Z 12010G15KT 31/13 A299 RMK A01 T03080129  RH  034%=      5-min Rain = 0
KTUR 242300Z 11010G16KT 30/13 A299 RMK A01 T03040126  RH  034%=      5-min Rain = 0
KTUR 242305Z 13007KT 31/13 A299 RMK A01 T03060125  RH  034%=      5-min Rain = 0
KTUR 242310Z 11007KT 31/13 A299 RMK A01 T03050125  RH  034%=      5-min Rain = 0
KTUR 242315Z 11008G13KT 31/13 A2989 RMK A01 T03050131  RH  035%=      5-min Rain = 0
KTUR 242320Z 13010KT 31/14 A2989 RMK A01 T03060136  RH  036%=      5-min Rain = 0
KTUR 242325Z 11008G15KT 30/14 A2989 RMK A01 T03040137  RH  037%=      5-min Rain = 0
KTUR 242330Z 12011G17KT 30/14 A2989 RMK A01 T03040137  RH  037%=      5-min Rain = 0
KTUR 242335Z 10010KT 30/14 A2989 RMK A01 T03020137  RH  037%=      5-min Rain = 0
KTUR 242340Z 10011KT 30/14 A2989 RMK A01 T03030137  RH  037%=      5-min Rain = 0
KTUR 242345Z 12010KT 30/14 A2989 RMK A01 T03020139  RH  038%=      5-min Rain = 0
KTUR 242350Z 11010KT 30/14 A2989 RMK A01 T03020141  RH  038%=      5-min Rain = 0
KTUR 242355Z 11010KT 30/14 A2988 RMK A01 T03020143  RH  039%=      5-min Rain = 0
KTUR 250000Z 11011KT 30/14 A2988 RMK A01 T03030142  RH  038%=      5-min Rain = 0
KTUR 250005Z 10012KT 30/14 A2988 RMK A01 T03010142  RH  039%=      5-min Rain = 0
KTUR 250010Z 10012KT 30/14 A2988 RMK A01 T03000144  RH  040%=      5-min Rain = 0
KTUR 250015Z 11012KT 30/15 A2988 RMK A01 T03010145  RH  040%=      5-min Rain = 0
KTUR 250020Z 11012KT 30/15 A2988 RMK A01 T02990146  RH  040%=      5-min Rain = 0
KTUR 250025Z 11011KT 30/15 A2988 RMK A01 T02980147  RH  041%=      5-min Rain = 0
KTUR 250030Z 10011G16KT 30/15 A2988 RMK A01 T02970147  RH  041%=      5-min Rain = 0
KTUR 250035Z 11012G17KT 30/15 A2989 RMK A01 T02970149  RH  042%=      5-min Rain = 0
KTUR 250040Z 10012G17KT 30/15 A2989 RMK A01 T02970151  RH  042%=      5-min Rain = 0
KTUR 250045Z 10012G17KT 30/15 A2989 RMK A01 T02950152  RH  043%=      5-min Rain = 0
KTUR 250050Z 10014KT 29/15 A2989 RMK A01 T02930151  RH  043%=      5-min Rain = 0
KTUR 250055Z 09012KT 29/15 A2988 RMK A01 T02930152  RH  043%=      5-min Rain = 0
KTUR 250100Z 10011KT 29/15 A2988 RMK A01 T02920153  RH  044%=      5-min Rain = 0
KTUR 250105Z 10013KT 29/15 A2989 RMK A01 T02930153  RH  044%=      5-min Rain = 0
KTUR 250110Z 10014G19KT 29/15 A299 RMK A01 T02920153  RH  044%=      5-min Rain = 0
KTUR 250115Z 11014KT 29/15 A2991 RMK A01 T02910152  RH  044%=      5-min Rain = 0
KTUR 250120Z 10016KT 29/15 A2991 RMK A01 T02890151  RH  044%=      5-min Rain = 0
KTUR 250125Z 11016KT 29/15 A2991 RMK A01 T02880150  RH  044%=      5-min Rain = 0
KTUR 250130Z 10017KT 29/15 A2991 RMK A01 T02850151  RH  045%=      5-min Rain = 0
KTUR 250135Z 11017KT 28/15 A2991 RMK A01 T02830152  RH  046%=      5-min Rain = 0
KTUR 250140Z 10014G19KT 28/15 A2991 RMK A01 T02810153  RH  046%=      5-min Rain = 0
KTUR 250145Z 10015KT 28/15 A2991 RMK A01 T02800153  RH  047%=      5-min Rain = 0
KTUR 250150Z 10014KT 28/15 A2991 RMK A01 T02780152  RH  047%=      5-min Rain = 0
KTUR 250155Z 10013G18KT 28/15 A2991 RMK A01 T02770152  RH  047%=      5-min Rain = 0
KTUR 250200Z 10013KT 28/15 A299 RMK A01 T02750151  RH  048%=      5-min Rain = 0
KTUR 250205Z 10013KT 27/15 A299 RMK A01 T02740151  RH  048%=      5-min Rain = 0
KTUR 250210Z 10012KT 27/15 A2991 RMK A01 T02730152  RH  048%=      5-min Rain = 0
KTUR 250215Z 10013KT 27/15 A2991 RMK A01 T02730152  RH  049%=      5-min Rain = 0
KTUR 250220Z 10013KT 27/15 A2991 RMK A01 T02720152  RH  049%=      5-min Rain = 0
KTUR 250225Z 11013KT 27/15 A2992 RMK A01 T02710153  RH  049%=      5-min Rain = 0
KTUR 250230Z 11012KT 27/15 A2992 RMK A01 T02690154  RH  050%=      5-min Rain = 0
KTUR 250235Z 10012KT 27/15 A2991 RMK A01 T02680154  RH  051%=      5-min Rain = 0
KTUR 250240Z 10011KT 27/16 A2991 RMK A01 T02660155  RH  051%=      5-min Rain = 0
KTUR 250245Z 10012KT 27/16 A2991 RMK A01 T02650156  RH  052%=      5-min Rain = 0
KTUR 250250Z 10012KT 27/16 A2992 RMK A01 T02650156  RH  052%=      5-min Rain = 0
KTUR 250255Z 10012KT 26/16 A2992 RMK A01 T02640157  RH  053%=      5-min Rain = 0
KTUR 250300Z 10011KT 26/16 A2992 RMK A01 T02630157  RH  053%=      5-min Rain = 0
KTUR 250305Z 10010KT 26/16 A2991 RMK A01 T02610158  RH  054%=      5-min Rain = 0
KTUR 250310Z 10011KT 26/16 A2991 RMK A01 T02600158  RH  055%=      5-min Rain = 0
KTUR 250315Z 09013KT 26/16 A2991 RMK A01 T02600159  RH  055%=      5-min Rain = 0
KTUR 250320Z 08013KT 26/16 A2991 RMK A01 T02590160  RH  056%=      5-min Rain = 0
KTUR 250325Z 09014KT 26/16 A2991 RMK A01 T02580161  RH  056%=      5-min Rain = 0
KTUR 250330Z 09014KT 26/16 A2991 RMK A01 T02570161  RH  057%=      5-min Rain = 0
KTUR 250335Z 10014KT 26/16 A2992 RMK A01 T02560161  RH  057%=      5-min Rain = 0
KTUR 250340Z 10013KT 26/16 A2992 RMK A01 T02550161  RH  057%=      5-min Rain = 0
KTUR 250345Z 09012KT 25/16 A2992 RMK A01 T02540161  RH  058%=      5-min Rain = 0
KTUR 250350Z 10013KT 25/16 A2992 RMK A01 T02530160  RH  058%=      5-min Rain = 0
KTUR 250355Z 10012KT 25/16 A2992 RMK A01 T02530160  RH  058%=      5-min Rain = 0
KTUR 250400Z 09011KT 25/16 A2993 RMK A01 T02510161  RH  058%=      5-min Rain = 0
KTUR 250405Z 09011KT 25/16 A2993 RMK A01 T02500161  RH  059%=      5-min Rain = 0
KTUR 250410Z 09012KT 25/16 A2993 RMK A01 T02490161  RH  059%=      5-min Rain = 0
KTUR 250415Z 10011KT 25/16 A2993 RMK A01 T02490162  RH  060%=      5-min Rain = 0
KTUR 250420Z 10011KT 25/16 A2993 RMK A01 T02480163  RH  061%=      5-min Rain = 0
KTUR 250425Z 09012KT 25/16 A2993 RMK A01 T02470164  RH  062%=      5-min Rain = 0
KTUR 250430Z 10012KT 25/17 A2993 RMK A01 T02460165  RH  062%=      5-min Rain = 0
KTUR 250435Z 10011KT 25/17 A2993 RMK A01 T02450166  RH  063%=      5-min Rain = 0
KTUR 250440Z 10011KT 24/17 A2993 RMK A01 T02440167  RH  064%=      5-min Rain = 0
KTUR 250445Z 10011KT 24/17 A2993 RMK A01 T02430168  RH  064%=      5-min Rain = 0
KTUR 250450Z 10011KT 24/17 A2994 RMK A01 T02420169  RH  065%=      5-min Rain = 0
KTUR 250455Z 10010KT 24/17 A2994 RMK A01 T02410170  RH  066%=      5-min Rain = 0

Page generated in 0.0334 seconds.